createdAt,value
2022-08-14T00:00:09.609Z,53.17
2022-08-14T00:02:19.079Z,53.37
2022-08-14T00:04:35.032Z,53.39
2022-08-14T00:06:47.236Z,53.44
2022-08-14T00:08:52.169Z,53.39
2022-08-14T00:10:58.241Z,53.45
2022-08-14T00:13:07.072Z,53.31
2022-08-14T00:15:16.227Z,53.54
2022-08-14T00:17:21.026Z,53.70
2022-08-14T00:19:26.933Z,54.12
2022-08-14T00:21:32.338Z,54.44
2022-08-14T00:23:38.025Z,54.67
2022-08-14T00:25:59.017Z,54.39
2022-08-14T00:28:15.428Z,54.90
2022-08-14T00:30:22.605Z,54.81
2022-08-14T00:32:50.555Z,54.55
2022-08-14T00:34:57.441Z,54.90
2022-08-14T00:37:02.485Z,55.10
2022-08-14T00:39:09.446Z,55.45
2022-08-14T00:41:14.977Z,55.71
2022-08-14T00:43:22.519Z,55.75
2022-08-14T00:45:31.152Z,55.89
2022-08-14T00:47:43.062Z,56.01
2022-08-14T00:49:50.743Z,56.18
2022-08-14T00:51:55.567Z,56.25
2022-08-14T00:54:01.993Z,56.50
2022-08-14T00:56:08.634Z,56.68
2022-08-14T00:58:32.577Z,56.44
2022-08-14T01:00:47.548Z,56.86
2022-08-14T01:02:56.352Z,56.91
2022-08-14T01:05:05.021Z,57.04
2022-08-14T01:07:10.117Z,57.00
2022-08-14T01:09:15.041Z,57.24
2022-08-14T01:11:21.059Z,57.35
2022-08-14T01:13:42.346Z,57.08
2022-08-14T01:16:01.070Z,57.45
2022-08-14T01:18:20.250Z,57.11
2022-08-14T01:20:39.355Z,57.25
2022-08-14T01:22:51.452Z,57.78
2022-08-14T01:24:57.459Z,57.66
2022-08-14T01:27:04.934Z,58.17
2022-08-14T01:29:16.371Z,57.89
2022-08-14T01:31:39.695Z,58.27
2022-08-14T01:35:15.758Z,58.08
2022-08-14T01:36:20.896Z,57.93
2022-08-14T01:38:34.311Z,58.02
2022-08-14T01:40:42.234Z,58.18
2022-08-14T01:42:48.913Z,58.16
2022-08-14T01:44:58.661Z,58.13
2022-08-14T01:47:11.829Z,58.20
2022-08-14T01:49:18.720Z,58.28
2022-08-14T01:51:28.808Z,58.56
2022-08-14T01:53:36.261Z,58.65
2022-08-14T01:55:41.916Z,58.73
2022-08-14T01:58:00.147Z,58.54
2022-08-14T02:00:09.044Z,58.71
2022-08-14T02:02:19.789Z,59.02
2022-08-14T02:04:56.089Z,59.34
2022-08-14T02:06:54.346Z,59.38
2022-08-14T02:09:04.310Z,59.22
2022-08-14T02:11:27.415Z,59.71
2022-08-14T02:13:35.553Z,59.84
2022-08-14T02:15:43.611Z,59.32
2022-08-14T02:17:49.050Z,59.98
2022-08-14T02:19:53.676Z,59.66
2022-08-14T02:22:03.327Z,60.00
2022-08-14T02:24:40.304Z,60.28
2022-08-14T02:28:18.734Z,60.10
2022-08-14T02:29:08.077Z,60.04
2022-08-14T02:31:15.006Z,60.73
2022-08-14T02:33:20.673Z,60.58
2022-08-14T02:35:32.815Z,61.04
2022-08-14T02:37:47.487Z,60.84
2022-08-14T02:39:57.530Z,60.73
2022-08-14T02:42:04.448Z,60.94
2022-08-14T02:44:11.909Z,60.49
2022-08-14T02:46:20.525Z,60.38
2022-08-14T02:49:01.710Z,60.29
2022-08-14T02:50:56.170Z,60.70
2022-08-14T02:53:03.502Z,60.65
2022-08-14T02:55:12.010Z,60.36
2022-08-14T02:57:40.312Z,60.70
2022-08-14T02:59:46.570Z,60.89
2022-08-14T03:01:54.997Z,61.29
2022-08-14T03:03:59.878Z,61.34
2022-08-14T03:06:06.261Z,61.13
2022-08-14T03:08:19.083Z,61.27
2022-08-14T03:10:31.987Z,61.15
2022-08-14T03:12:37.236Z,61.32
2022-08-14T03:14:45.139Z,61.64
2022-08-14T03:16:50.982Z,61.48
2022-08-14T03:18:59.870Z,61.33
2022-08-14T03:21:07.903Z,61.38
2022-08-14T03:23:14.649Z,61.70
2022-08-14T03:25:22.534Z,61.63
2022-08-14T03:27:35.538Z,61.58
2022-08-14T03:29:52.934Z,61.80
2022-08-14T03:31:59.448Z,61.56
2022-08-14T03:34:04.881Z,62.12
2022-08-14T03:37:51.989Z,61.82
2022-08-14T03:39:15.483Z,62.05
2022-08-14T03:41:14.404Z,62.56
2022-08-14T03:43:22.365Z,62.70
2022-08-14T03:45:35.415Z,62.83
2022-08-14T03:47:55.999Z,62.95
2022-08-14T03:50:03.496Z,63.37
2022-08-14T03:52:27.853Z,63.63
2022-08-14T03:54:38.072Z,63.19
2022-08-14T03:56:45.646Z,63.47
2022-08-14T03:58:59.874Z,62.92
2022-08-14T04:01:06.490Z,63.13
2022-08-14T04:03:19.607Z,63.34
2022-08-14T04:05:29.332Z,63.19
2022-08-14T04:08:00.397Z,63.44
2022-08-14T04:10:12.950Z,63.43
2022-08-14T04:12:26.112Z,63.91
2022-08-14T04:14:37.239Z,63.59
2022-08-14T04:16:42.960Z,63.80
2022-08-14T04:18:51.219Z,64.05
2022-08-14T04:20:58.575Z,63.64
2022-08-14T04:23:07.045Z,63.51
2022-08-14T04:25:20.355Z,63.21
2022-08-14T04:27:27.558Z,63.82
2022-08-14T04:29:36.043Z,63.85
2022-08-14T04:33:02.887Z,63.63
2022-08-14T04:34:06.179Z,64.60
2022-08-14T04:36:15.848Z,64.70
2022-08-14T04:38:39.780Z,64.81
2022-08-14T04:40:57.185Z,64.42
2022-08-14T04:43:17.378Z,64.91
2022-08-14T04:45:32.877Z,64.59
2022-08-14T04:47:53.772Z,64.59
2022-08-14T04:49:59.500Z,64.75
2022-08-14T04:52:15.363Z,64.80
2022-08-14T04:54:24.640Z,64.67
2022-08-14T04:56:34.039Z,65.02
2022-08-14T04:58:39.737Z,64.93
2022-08-14T05:00:50.860Z,64.70
2022-08-14T05:02:57.278Z,64.73
2022-08-14T05:05:01.870Z,64.82
2022-08-14T05:07:06.871Z,64.37
2022-08-14T05:09:14.310Z,64.17
2022-08-14T05:11:20.043Z,64.11
2022-08-14T05:13:31.848Z,64.77
2022-08-14T05:15:50.192Z,64.73
2022-08-14T05:18:16.921Z,64.95
2022-08-14T05:21:05.098Z,64.88
2022-08-14T05:22:47.512Z,64.99
2022-08-14T05:25:01.758Z,64.80
2022-08-14T05:27:06.809Z,64.42
2022-08-14T05:29:12.546Z,64.35
2022-08-14T05:31:21.264Z,64.55
2022-08-14T05:33:29.031Z,64.09
2022-08-14T05:35:35.395Z,63.91
2022-08-14T05:37:44.530Z,64.14
2022-08-14T05:39:51.206Z,64.06
2022-08-14T05:41:56.822Z,63.65
2022-08-14T05:44:02.324Z,63.62
2022-08-14T05:46:06.941Z,64.07
2022-08-14T05:50:38.863Z,63.83
2022-08-14T05:52:46.223Z,63.83
2022-08-14T05:54:51.121Z,63.44
2022-08-14T05:56:56.034Z,63.34
2022-08-14T05:59:00.866Z,63.83
2022-08-14T06:01:06.571Z,63.58
2022-08-14T06:03:16.944Z,62.52
2022-08-14T06:05:23.285Z,62.43
2022-08-14T06:07:28.330Z,62.15
2022-08-14T06:09:35.375Z,61.47
2022-08-14T06:11:41.151Z,61.18
2022-08-14T06:13:48.163Z,61.15
2022-08-14T06:15:53.758Z,59.74
2022-08-14T06:18:00.299Z,59.60
2022-08-14T06:20:10.343Z,59.78
2022-08-14T06:22:15.328Z,59.54
2022-08-14T06:24:22.364Z,60.03
2022-08-14T06:26:30.319Z,60.17
2022-08-14T06:28:36.542Z,60.35
2022-08-14T06:30:47.113Z,60.31
2022-08-14T06:32:53.422Z,59.74
2022-08-14T06:35:04.595Z,59.94
2022-08-14T06:37:19.946Z,59.96
2022-08-14T06:39:36.771Z,60.22
2022-08-14T06:41:59.610Z,60.25
2022-08-14T06:44:04.620Z,60.23
2022-08-14T06:46:23.296Z,59.95
2022-08-14T06:48:35.472Z,59.85
2022-08-14T06:50:41.055Z,59.34
2022-08-14T06:52:53.284Z,58.85
2022-08-14T06:54:58.139Z,58.60
2022-08-14T06:57:04.218Z,58.74
2022-08-14T06:59:08.954Z,58.64
2022-08-14T07:01:36.949Z,58.35
2022-08-14T07:03:54.470Z,57.61
2022-08-14T07:05:59.406Z,58.17
2022-08-14T07:08:09.392Z,57.38
2022-08-14T07:10:17.311Z,57.73
2022-08-14T07:12:54.871Z,57.21
2022-08-14T07:14:47.481Z,57.03
2022-08-14T07:16:52.416Z,56.94
2022-08-14T07:18:57.397Z,56.44
2022-08-14T07:21:05.822Z,56.47
2022-08-14T07:23:20.569Z,56.06
2022-08-14T07:25:32.797Z,56.00
2022-08-14T07:27:37.977Z,55.65
2022-08-14T07:29:47.608Z,55.42
2022-08-14T07:31:52.617Z,55.27
2022-08-14T07:33:57.987Z,54.38
2022-08-14T07:36:09.047Z,54.12
2022-08-14T07:38:37.938Z,54.54
2022-08-14T07:40:43.064Z,54.69
2022-08-14T07:42:50.628Z,53.72
2022-08-14T07:44:55.694Z,53.89
2022-08-14T07:47:01.230Z,53.29
2022-08-14T07:49:05.803Z,53.47
2022-08-14T07:51:11.500Z,52.80
2022-08-14T07:53:17.059Z,52.47
2022-08-14T07:55:26.227Z,52.29
2022-08-14T07:57:34.178Z,51.50
2022-08-14T07:59:42.336Z,51.41
2022-08-14T08:01:51.199Z,50.99
2022-08-14T08:04:00.499Z,50.93
2022-08-14T08:06:10.499Z,50.81
2022-08-14T08:08:27.443Z,50.85
2022-08-14T08:10:57.092Z,50.40
2022-08-14T08:13:09.062Z,50.47
2022-08-14T08:15:14.076Z,50.31
2022-08-14T08:17:18.647Z,50.52
2022-08-14T08:19:25.063Z,49.53
2022-08-14T08:21:33.407Z,49.23
2022-08-14T08:23:50.938Z,48.81
2022-08-14T08:26:00.044Z,47.81
2022-08-14T08:28:08.963Z,47.67
2022-08-14T08:30:24.975Z,47.98
2022-08-14T08:32:30.297Z,47.98
2022-08-14T08:34:47.109Z,46.92
2022-08-14T08:36:52.678Z,47.31
2022-08-14T08:39:15.043Z,46.68
2022-08-14T08:41:28.059Z,46.87
2022-08-14T08:43:38.329Z,46.55
2022-08-14T08:45:43.246Z,46.53
2022-08-14T08:47:48.177Z,45.73
2022-08-14T08:50:00.026Z,45.32
2022-08-14T08:52:06.124Z,45.10
2022-08-14T08:54:26.694Z,44.51
2022-08-14T08:56:40.586Z,44.03
2022-08-14T08:58:47.003Z,43.78
2022-08-14T09:00:55.577Z,44.08
2022-08-14T09:03:03.327Z,43.96
2022-08-14T09:05:09.625Z,43.20
2022-08-14T09:07:16.493Z,42.67
2022-08-14T09:09:33.090Z,42.07
2022-08-14T09:11:41.493Z,42.50
2022-08-14T09:13:46.481Z,42.11
2022-08-14T09:15:52.558Z,41.91
2022-08-14T09:18:00.795Z,41.90
2022-08-14T09:20:08.383Z,41.63
2022-08-14T09:22:35.794Z,41.83
2022-08-14T09:24:44.180Z,41.55
2022-08-14T09:26:53.808Z,41.10
2022-08-14T09:28:58.875Z,41.29
2022-08-14T09:31:17.256Z,40.94
2022-08-14T09:33:36.785Z,40.63
2022-08-14T09:36:16.554Z,40.82
2022-08-14T09:38:31.067Z,39.73
2022-08-14T09:40:50.411Z,38.37
2022-08-14T09:43:10.356Z,37.69
2022-08-14T09:45:18.953Z,37.46
2022-08-14T09:47:24.405Z,37.73
2022-08-14T09:49:40.639Z,37.79
2022-08-14T09:51:58.388Z,37.75
2022-08-14T09:54:19.693Z,37.28
2022-08-14T09:56:31.118Z,37.35
2022-08-14T09:58:43.955Z,37.41
2022-08-14T10:00:50.906Z,37.66
2022-08-14T10:03:05.532Z,37.55
2022-08-14T10:05:13.222Z,36.86
2022-08-14T10:07:18.370Z,36.56
2022-08-14T10:09:23.780Z,35.98
2022-08-14T10:11:36.433Z,35.80
2022-08-14T10:13:53.254Z,35.40
2022-08-14T10:16:02.576Z,35.21
2022-08-14T10:18:18.198Z,34.98
2022-08-14T10:20:39.531Z,34.64
2022-08-14T10:23:12.265Z,34.61
2022-08-14T10:25:16.098Z,34.63
2022-08-14T10:27:23.605Z,34.27
2022-08-14T10:29:41.107Z,34.03
2022-08-14T10:31:45.981Z,33.24
2022-08-14T10:34:13.234Z,33.44
2022-08-14T10:36:34.528Z,33.95
2022-08-14T10:38:42.001Z,34.60
2022-08-14T10:40:59.347Z,34.79
2022-08-14T10:43:18.794Z,35.08
2022-08-14T10:45:42.036Z,34.42
2022-08-14T10:48:09.733Z,34.87
2022-08-14T10:50:32.356Z,35.00
2022-08-14T10:52:38.329Z,34.89
2022-08-14T10:54:48.758Z,35.28
2022-08-14T10:57:15.287Z,35.14
2022-08-14T10:59:23.518Z,34.14
2022-08-14T11:01:42.892Z,34.32
2022-08-14T11:03:56.128Z,33.54
2022-08-14T11:06:01.883Z,33.70
2022-08-14T11:08:09.155Z,33.10
2022-08-14T11:10:18.424Z,33.07
2022-08-14T11:12:34.245Z,32.64
2022-08-14T11:14:45.189Z,32.21
2022-08-14T11:16:54.304Z,32.07
2022-08-14T11:18:59.858Z,32.11
2022-08-14T11:21:06.822Z,31.06
2022-08-14T11:23:16.197Z,30.68
2022-08-14T11:25:23.759Z,30.27
2022-08-14T11:27:33.088Z,30.61
2022-08-14T11:29:42.391Z,30.80
2022-08-14T11:31:51.781Z,30.82
2022-08-14T11:34:00.935Z,30.84
2022-08-14T11:36:18.299Z,30.51
2022-08-14T11:38:23.849Z,30.43
2022-08-14T11:40:35.038Z,30.25
2022-08-14T11:43:08.095Z,30.36
2022-08-14T11:45:11.032Z,29.15
2022-08-14T11:47:22.337Z,29.78
2022-08-14T11:49:34.195Z,29.45
2022-08-14T11:51:53.616Z,29.58
2022-08-14T11:54:04.392Z,29.77
2022-08-14T11:56:10.966Z,29.67
2022-08-14T11:58:24.071Z,29.48
2022-08-14T12:00:31.914Z,29.87
2022-08-14T12:03:00.568Z,29.60
2022-08-14T12:05:09.146Z,29.36
2022-08-14T12:07:14.588Z,29.44
2022-08-14T12:09:31.443Z,29.75
2022-08-14T12:11:43.754Z,29.78
2022-08-14T12:13:55.901Z,30.36
2022-08-14T12:16:06.446Z,30.52
2022-08-14T12:18:19.256Z,30.76
2022-08-14T12:20:36.759Z,30.99
2022-08-14T12:22:44.125Z,31.22
2022-08-14T12:24:52.949Z,30.90
2022-08-14T12:26:58.913Z,30.98
2022-08-14T12:29:10.063Z,31.07
2022-08-14T12:31:20.677Z,30.42
2022-08-14T12:33:32.880Z,30.49
2022-08-14T12:35:46.969Z,30.41
2022-08-14T12:37:53.298Z,30.56
2022-08-14T12:39:58.726Z,30.34
2022-08-14T12:42:11.610Z,29.82
2022-08-14T12:44:33.692Z,29.81
2022-08-14T12:46:43.514Z,29.63
2022-08-14T12:48:51.619Z,29.50
2022-08-14T12:50:59.076Z,29.47
2022-08-14T12:53:14.557Z,30.04
2022-08-14T12:55:22.504Z,30.42
2022-08-14T12:57:43.038Z,30.56
2022-08-14T12:59:49.272Z,30.58
2022-08-14T13:02:06.459Z,30.58
2022-08-14T13:04:16.653Z,30.54
2022-08-14T13:06:29.416Z,31.10
2022-08-14T13:08:34.489Z,31.05
2022-08-14T13:10:51.102Z,31.25
2022-08-14T13:13:16.100Z,31.67
2022-08-14T13:15:21.434Z,31.28
2022-08-14T13:17:27.504Z,31.06
2022-08-14T13:19:33.420Z,30.83
2022-08-14T13:22:05.936Z,30.81
2022-08-14T13:24:09.271Z,30.85
2022-08-14T13:26:14.628Z,30.35
2022-08-14T13:28:32.739Z,30.68
2022-08-14T13:30:39.362Z,29.97
2022-08-14T13:32:45.346Z,30.24
2022-08-14T13:34:52.669Z,30.39
2022-08-14T13:37:04.258Z,29.54
2022-08-14T13:39:09.793Z,29.55
2022-08-14T13:41:31.441Z,29.12
2022-08-14T13:43:49.114Z,29.02
2022-08-14T13:46:04.690Z,29.41
2022-08-14T13:48:18.481Z,29.01
2022-08-14T13:50:37.477Z,29.08
2022-08-14T13:52:54.841Z,29.27
2022-08-14T13:55:07.751Z,29.07
2022-08-14T13:57:20.298Z,28.56
2022-08-14T13:59:38.137Z,28.56
2022-08-14T14:01:45.862Z,28.30
2022-08-14T14:03:59.295Z,27.75
2022-08-14T14:06:08.350Z,27.83
2022-08-14T14:08:19.116Z,28.21
2022-08-14T14:10:44.480Z,28.21
2022-08-14T14:12:56.372Z,28.13
2022-08-14T14:15:05.442Z,28.63
2022-08-14T14:17:13.922Z,28.75
2022-08-14T14:19:23.581Z,28.44
2022-08-14T14:21:30.694Z,28.44
2022-08-14T14:23:40.888Z,28.40
2022-08-14T14:25:51.231Z,27.91
2022-08-14T14:28:04.573Z,27.89
2022-08-14T14:30:52.646Z,27.58
2022-08-14T14:33:01.984Z,27.70
2022-08-14T14:35:07.395Z,27.50
2022-08-14T14:37:15.493Z,27.05
2022-08-14T14:39:25.580Z,27.08
2022-08-14T14:41:37.970Z,26.70
2022-08-14T14:43:52.558Z,26.76
2022-08-14T14:45:59.879Z,26.84
2022-08-14T14:48:06.619Z,27.79
2022-08-14T14:50:12.883Z,28.22
2022-08-14T14:52:26.583Z,28.28
2022-08-14T14:54:37.606Z,28.60
2022-08-14T14:56:49.812Z,28.72
2022-08-14T14:58:57.580Z,28.18
2022-08-14T15:01:08.584Z,27.62
2022-08-14T15:03:15.406Z,27.07
2022-08-14T15:05:24.263Z,27.57
2022-08-14T15:07:33.733Z,27.45
2022-08-14T15:09:41.241Z,27.80
2022-08-14T15:11:47.134Z,27.61
2022-08-14T15:13:52.998Z,28.18
2022-08-14T15:15:59.807Z,28.03
2022-08-14T15:18:05.336Z,28.02
2022-08-14T15:20:17.419Z,28.40
2022-08-14T15:22:39.754Z,28.57
2022-08-14T15:24:51.034Z,28.50
2022-08-14T15:26:58.472Z,28.35
2022-08-14T15:29:06.030Z,28.29
2022-08-14T15:31:11.170Z,28.77
2022-08-14T15:33:36.867Z,28.61
2022-08-14T15:36:02.314Z,28.97
2022-08-14T15:38:08.815Z,29.33
2022-08-14T15:40:22.467Z,28.77
2022-08-14T15:42:28.930Z,29.05
2022-08-14T15:44:36.769Z,29.52
2022-08-14T15:46:49.889Z,28.88
2022-08-14T15:48:55.784Z,29.03
2022-08-14T15:51:01.222Z,28.92
2022-08-14T15:53:09.199Z,28.42
2022-08-14T15:55:20.946Z,27.61
2022-08-14T15:57:27.990Z,27.37
2022-08-14T15:59:53.950Z,26.89
2022-08-14T16:01:57.313Z,26.30
2022-08-14T16:04:02.185Z,25.65
2022-08-14T16:06:17.370Z,25.76
2022-08-14T16:08:26.880Z,25.45
2022-08-14T16:10:38.164Z,25.76
2022-08-14T16:12:47.392Z,25.11
2022-08-14T16:14:52.371Z,24.51
2022-08-14T16:17:00.770Z,24.84
2022-08-14T16:19:09.754Z,24.75
2022-08-14T16:21:18.304Z,24.25
2022-08-14T16:23:23.514Z,24.77
2022-08-14T16:25:34.867Z,24.85
2022-08-14T16:27:43.943Z,25.40
2022-08-14T16:29:48.913Z,25.64
2022-08-14T16:31:56.370Z,25.94
2022-08-14T16:34:01.234Z,26.16
2022-08-14T16:36:31.246Z,26.33
2022-08-14T16:38:45.314Z,26.55
2022-08-14T16:41:14.084Z,27.41
2022-08-14T16:43:26.015Z,27.78
2022-08-14T16:45:33.657Z,28.37
2022-08-14T16:47:38.917Z,28.41
2022-08-14T16:50:03.525Z,28.44
2022-08-14T16:52:25.876Z,28.98
2022-08-14T16:54:45.117Z,28.99
2022-08-14T16:56:50.089Z,29.33
2022-08-14T16:59:12.283Z,29.60
2022-08-14T17:01:24.892Z,29.64
2022-08-14T17:03:41.028Z,29.91
2022-08-14T17:05:48.147Z,30.51
2022-08-14T17:08:33.278Z,30.55
2022-08-14T17:11:10.139Z,31.36
2022-08-14T17:13:20.312Z,31.02
2022-08-14T17:15:27.789Z,31.00
2022-08-14T17:17:49.994Z,30.95
2022-08-14T17:20:08.836Z,31.11
2022-08-14T17:22:49.140Z,31.41
2022-08-14T17:25:02.984Z,31.05
2022-08-14T17:27:10.564Z,30.87
2022-08-14T17:29:17.926Z,30.99
2022-08-14T17:31:58.066Z,31.28
2022-08-14T17:33:59.334Z,31.22
2022-08-14T17:36:20.688Z,31.06
2022-08-14T17:38:39.217Z,31.65
2022-08-14T17:40:45.153Z,31.35
2022-08-14T17:43:01.732Z,31.80
2022-08-14T17:45:08.068Z,31.76
2022-08-14T17:47:18.304Z,32.15
2022-08-14T17:49:26.392Z,32.08
2022-08-14T17:51:32.432Z,32.32
2022-08-14T17:53:53.331Z,32.10
2022-08-14T17:56:05.991Z,32.04
2022-08-14T17:58:20.700Z,32.57
2022-08-14T18:00:28.514Z,32.58
2022-08-14T18:02:40.277Z,32.41
2022-08-14T18:05:00.238Z,32.84
2022-08-14T18:07:49.321Z,32.98
2022-08-14T18:09:40.205Z,33.14
2022-08-14T18:12:06.174Z,33.49
2022-08-14T18:14:31.635Z,33.53
2022-08-14T18:16:39.073Z,33.66
2022-08-14T18:18:49.739Z,33.47
2022-08-14T18:21:43.050Z,33.86
2022-08-14T18:23:24.008Z,33.79
2022-08-14T18:25:30.292Z,34.25
2022-08-14T18:27:42.613Z,34.18
2022-08-14T18:29:54.705Z,34.03
2022-08-14T18:32:00.690Z,34.47
2022-08-14T18:34:31.946Z,34.42
2022-08-14T18:36:54.279Z,34.47
2022-08-14T18:39:26.792Z,34.93
2022-08-14T18:41:37.071Z,34.69
2022-08-14T18:43:44.931Z,35.05
2022-08-14T18:46:04.477Z,34.93
2022-08-14T18:48:33.549Z,35.41
2022-08-14T18:50:55.578Z,35.09
2022-08-14T18:53:09.190Z,35.34
2022-08-14T18:55:53.209Z,35.30
2022-08-14T18:58:26.623Z,35.75
2022-08-14T19:00:51.920Z,35.60
2022-08-14T19:02:57.572Z,35.83
2022-08-14T19:05:04.326Z,35.80
2022-08-14T19:07:21.036Z,35.95
2022-08-14T19:09:58.857Z,35.73
2022-08-14T19:12:05.029Z,35.94
2022-08-14T19:14:10.306Z,35.77
2022-08-14T19:16:22.804Z,35.82
2022-08-14T19:18:38.085Z,36.06
2022-08-14T19:20:55.489Z,36.32
2022-08-14T19:23:18.734Z,36.22
2022-08-14T19:25:51.907Z,36.02
2022-08-14T19:28:31.256Z,36.49
2022-08-14T19:30:38.385Z,36.65
2022-08-14T19:32:43.335Z,36.72
2022-08-14T19:34:52.540Z,36.95
2022-08-14T19:37:09.875Z,36.92
2022-08-14T19:39:18.027Z,37.11
2022-08-14T19:41:29.268Z,36.96
2022-08-14T19:43:55.942Z,37.12
2022-08-14T19:46:00.383Z,37.09
2022-08-14T19:48:06.558Z,37.08
2022-08-14T19:50:30.716Z,37.39
2022-08-14T19:52:39.908Z,37.47
2022-08-14T19:54:47.680Z,37.56
2022-08-14T19:56:52.598Z,37.54
2022-08-14T19:58:57.737Z,37.35
2022-08-14T20:01:08.698Z,37.47
2022-08-14T20:03:18.412Z,37.90
2022-08-14T20:05:23.876Z,37.57
2022-08-14T20:08:00.720Z,38.11
2022-08-14T20:11:03.335Z,37.82
2022-08-14T20:12:28.941Z,37.77
2022-08-14T20:14:40.692Z,38.27
2022-08-14T20:17:05.470Z,38.09
2022-08-14T20:19:20.650Z,37.95
2022-08-14T20:21:34.184Z,38.20
2022-08-14T20:23:41.090Z,38.29
2022-08-14T20:25:57.180Z,38.22
2022-08-14T20:28:30.072Z,38.39
2022-08-14T20:30:36.475Z,38.11
2022-08-14T20:32:44.111Z,38.02
2022-08-14T20:34:51.661Z,38.24
2022-08-14T20:37:10.428Z,38.42
2022-08-14T20:39:15.981Z,38.53
2022-08-14T20:41:23.647Z,38.48
2022-08-14T20:43:44.457Z,38.63
2022-08-14T20:45:52.059Z,38.85
2022-08-14T20:48:00.871Z,38.74
2022-08-14T20:50:20.264Z,39.03
2022-08-14T20:52:34.567Z,39.32
2022-08-14T20:54:50.677Z,39.71
2022-08-14T20:57:09.193Z,39.63
2022-08-14T20:59:19.322Z,39.76
2022-08-14T21:01:38.679Z,40.39
2022-08-14T21:03:57.681Z,40.21
2022-08-14T21:06:19.388Z,40.50
2022-08-14T21:08:25.620Z,40.34
2022-08-14T21:10:44.264Z,40.46
2022-08-14T21:12:55.517Z,40.22
2022-08-14T21:15:20.422Z,39.93
2022-08-14T21:17:29.693Z,40.07
2022-08-14T21:19:35.149Z,39.75
2022-08-14T21:21:45.414Z,39.79
2022-08-14T21:24:01.956Z,39.97
2022-08-14T21:26:08.093Z,40.02
2022-08-14T21:28:29.327Z,40.09
2022-08-14T21:30:47.007Z,39.88
2022-08-14T21:32:59.775Z,40.15
2022-08-14T21:35:10.024Z,40.29
2022-08-14T21:37:15.530Z,40.43
2022-08-14T21:39:22.337Z,40.35
2022-08-14T21:41:41.323Z,40.44
2022-08-14T21:43:48.436Z,40.42
2022-08-14T21:45:58.856Z,40.70
2022-08-14T21:48:10.859Z,41.01
2022-08-14T21:50:40.521Z,40.76
2022-08-14T21:52:50.758Z,40.97
2022-08-14T21:55:10.201Z,41.20
2022-08-14T21:57:23.735Z,41.14
2022-08-14T21:59:46.389Z,41.49
2022-08-14T22:02:00.490Z,41.58
2022-08-14T22:04:33.610Z,41.28
2022-08-14T22:06:36.394Z,41.59
2022-08-14T22:08:45.989Z,41.64
2022-08-14T22:10:53.397Z,41.71
2022-08-14T22:13:01.202Z,41.60
2022-08-14T22:15:08.264Z,41.65
2022-08-14T22:17:17.119Z,41.79
2022-08-14T22:19:28.671Z,41.32
2022-08-14T22:21:53.495Z,41.72
2022-08-14T22:23:58.718Z,41.86
2022-08-14T22:26:05.919Z,41.79
2022-08-14T22:28:14.812Z,41.28
2022-08-14T22:30:20.585Z,41.69
2022-08-14T22:32:30.198Z,41.76
2022-08-14T22:34:46.874Z,41.47
2022-08-14T22:36:53.530Z,41.96
2022-08-14T22:38:59.681Z,41.94
2022-08-14T22:41:29.705Z,42.02
2022-08-14T22:43:31.298Z,42.24
2022-08-14T22:45:40.378Z,42.17
2022-08-14T22:48:00.709Z,42.16
2022-08-14T22:50:31.701Z,42.28
2022-08-14T22:52:38.513Z,42.56
2022-08-14T22:54:52.302Z,42.52
2022-08-14T22:56:59.047Z,42.87
2022-08-14T22:59:09.663Z,42.98
2022-08-14T23:01:18.515Z,43.33
2022-08-14T23:03:27.884Z,43.50
2022-08-14T23:05:40.072Z,43.77
2022-08-14T23:08:59.798Z,43.77
2022-08-14T23:10:32.399Z,44.05
2022-08-14T23:12:45.957Z,44.47
2022-08-14T23:15:00.067Z,44.67
2022-08-14T23:17:06.106Z,44.27
2022-08-14T23:19:17.637Z,44.63
2022-08-14T23:21:28.958Z,44.52
2022-08-14T23:23:34.065Z,44.78
2022-08-14T23:25:58.746Z,44.80
2022-08-14T23:28:33.495Z,44.89
2022-08-14T23:30:41.587Z,44.82
2022-08-14T23:32:56.612Z,44.79
2022-08-14T23:35:03.566Z,44.74
2022-08-14T23:37:11.600Z,45.15
2022-08-14T23:39:20.847Z,45.15
2022-08-14T23:41:25.772Z,45.13
2022-08-14T23:43:54.607Z,45.03
2022-08-14T23:46:00.232Z,45.15
2022-08-14T23:48:05.367Z,45.08
2022-08-14T23:50:34.487Z,45.07
2022-08-14T23:52:50.457Z,45.29
2022-08-14T23:55:11.117Z,45.73
2022-08-14T23:57:19.328Z,45.92
2022-08-14T23:59:24.553Z,45.41
